Create Custom Reports and Graphics: Custom Report

Latest Observations

Map

15 Minute Data

Lake County North

13 Stations

15 Minute Data | America/Los_Angeles
as of 11/14/19 11:58 AM PST
Station Date Time Temp (°F) Dew Pt (°F) RH (%) Wind Spd (mph) Wind Dir (°) Wind Gust (mph) Latest Rain (In) Daily Rain (In) Daily Min Temp (°F) Daily Max Temp (°F)
Upper Lake (UPL) 11/14/19 1100 59.8   3.7 48.4   2.0 66 2.1 SSE | 166 5.0 0.00 0.00 41.3   4.2 60.7   3.5
Scotts Valley (SVL) 11/14/19 1145 64.0   6.5 45.6   0.1 51 2.9 SSE | 156 7.3 0.00 0.00 37.8   4.3 64.4   7.0
High Valley Ridgeline (Brassfield) 11/14/19 1145 60.6   9.2 44.8   1.5 56 2.9 SSW | 208 8.5 0.00 0.00 49.7   8.2 61.8   10.9
Ridgeline Top (Brassfield) 11/14/19 1145 60.6   9.5 - - - - - - - 49.7   8.8 62.3   9.5
Ridgeline Low (Brassfield) 11/14/19 1145 62.1   8.9 - - - - - - - 47.4   3.2 63.7   9.6
High Valley Winery 11/14/19 1145 62.8   10.0 43.6   2.4 50 4.8 SSE | 150 8.2 0.00 0.00 41.5   3.6 63.5   10.1
Kelseyville (KEL) 11/14/19 1145 65.5   1.9 46.1   0.2 51 3.1 WSW | 258 6.8 0.00 0.00 42.1   4.2 66.9   1.2
Kelseyville Remote 11/14/19 1145 62.3   4.0 42.4   0.6 48 - - - - - 43.1   6.2 62.9   4.2
Kelseyville South (SML) 11/14/19 1145 61.4   4.6 45.9   0.9 57 4.9 WSW | 238 9.1 0.00 0.00 43.1   5.7 62.0   4.4
Bell Hill West (BHR) 11/14/19 1145 61.6   5.6 45.7   2.1 56 6.6 SSW | 205 11.8 0.00 0.00 44.5   4.4 62.4   5.1
Wight Way 11/14/19 1145 64.2   7.3 45.0   1.4 50 3.5 SW | 221 8.5 0.00 0.00 41.0   5.5 66.2   6.0
Red Hills (Beckstoffer) 11/14/19 1145 64.2   8.7 41.7   1.3 44 - - - - - 38.6   4.5 66.3   8.1
Red Hills East (2200ft) 11/14/19 1145 61.0   10.6 44.4   3.7 54 5.2 ESE | 120 11.5 0.00 0.00 45.9   0.3 61.5   11.1
Max     65.5 48.4 66 6.6 - 11.8 0.00 0.00 49.7 66.9
Avg     62.3 44.9 53 4.0 - 8.5 0.00 - - -
Min     59.8 41.7 44 2.1 - 5.0 0.00 0.00 37.8 60.7

Latest Observation

9 Stations

15 Minute Data | America/Los_Angeles
as of 11/14/19 11:58 AM PST
Station Date Time Temp (°F) Dew Pt (°F) RH (%) Upper Temp (°F) Wind Spd (mph) Wind Dir (°) Wind Gust (mph) Latest Rain (In) Daily Rain (In) Daily Min Temp (°F) Daily Max Temp (°F)
Diamond D (Middletown) 11/14/19 1145 59.8   13.8 45.6   5.8 59   30 59.4   14.3 4.3 SW | 236 11.7   7.3 0.00 0.01 41.6   2.5 61.2   13.0
Bella Vista-Middletown West 11/14/19 1145 59.3   14.8 46.3   6.1 62   33 - - - - - - 42.3   4.4 60.4   15.1
Middletown-South 11/14/19 1145 59.8   13.5 45.8   8.9 58   32 - 5.1 WSW | 248 12.4   7.6 0.00 0.00 42.8   2.6 61.2   14.1
Lower Bohn 11/14/19 1145 61.5   13.8 47.2   4.8 59   29 - 4.5 ESE | 122 8.9   4.9 0.00 0.00 41.1   5.6 62.5   14.2
Upper Bohn South 11/14/19 1145 61.2   12.0 48.3   8.6 63   6 - 3.2 SE | 127 9.4   4.6 0.00 0.00 45.0   0.4 62.0   12.0
Upper Bohn North 11/14/19 1145 61.5   13.0 45.5   5.5 56   27 - 4.0 SSE | 159 8.6   3.1 0.00 0.00 46.3   0.8 63.6   12.0
Morgan Valley (HSM) 11/14/19 1145 54.1   15.0 42.2   6.6 64   35 - 6.2 SSW | 196 9.6   2.9 0.00 0.00 47.4   13.5 60.4   9.0
Mine Pit South 11/14/19 1145 60.2   12.5 45.4   6.8 58   29 - 3.2 NW | 316 7.0   4.4 0.00 0.00 46.3   8.4 60.8   12.7
Mine Pit North 11/14/19 1145 59.8   13.8 46.7   7.4 62   33 - 4.8 S | 169 8.6   6.1 - - 46.8   5.6 61.4   13.2
Max     61.5 48.3 64 - 6.2 - 12.4 0.00 0.01 47.4 63.6
Avg     59.7 45.9 60 - 4.4 - 9.5 0.00 - - -
Min     54.1 42.2 56 - 3.2 - 7.0 0.00 0.00 41.1 60.4